createdAt,value
2019-03-24T00:02:15.139Z,20.60
2019-03-24T00:04:43.575Z,23.50
2019-03-24T00:07:11.978Z,26.63
2019-03-24T00:09:40.515Z,17.83
2019-03-24T00:12:08.999Z,19.93
2019-03-24T00:14:37.581Z,18.33
2019-03-24T00:17:06.108Z,17.63
2019-03-24T00:19:34.513Z,16.43
2019-03-24T00:22:02.939Z,23.13
2019-03-24T00:24:31.401Z,22.30
2019-03-24T00:26:59.838Z,31.00
2019-03-24T00:29:28.316Z,19.33
2019-03-24T00:31:56.786Z,19.20
2019-03-24T00:34:25.203Z,17.10
2019-03-24T00:36:53.631Z,26.10
2019-03-24T00:39:22.061Z,21.43
2019-03-24T00:41:50.449Z,23.67
2019-03-24T00:44:18.899Z,19.77
2019-03-24T00:46:47.381Z,31.43
2019-03-24T00:49:15.794Z,19.60
2019-03-24T00:51:44.371Z,20.77
2019-03-24T00:54:12.842Z,21.27
2019-03-24T00:56:41.478Z,23.23
2019-03-24T00:59:10.019Z,25.17
2019-03-24T01:01:38.606Z,16.87
2019-03-24T01:04:07.141Z,18.50
2019-03-24T01:06:35.642Z,26.63
2019-03-24T01:09:06.033Z,22.60
2019-03-24T01:11:34.543Z,17.93
2019-03-24T01:14:03.120Z,25.03
2019-03-24T01:16:31.730Z,28.97
2019-03-24T01:19:00.184Z,30.10
2019-03-24T01:21:28.716Z,24.53
2019-03-24T01:23:57.119Z,25.73
2019-03-24T01:26:25.543Z,22.73
2019-03-24T01:28:54.002Z,24.57
2019-03-24T01:31:22.464Z,22.63
2019-03-24T01:33:50.880Z,29.63
2019-03-24T01:36:19.368Z,29.87
2019-03-24T01:38:47.932Z,20.90
2019-03-24T01:41:16.406Z,21.60
2019-03-24T01:43:44.921Z,23.50
2019-03-24T01:46:13.421Z,21.57
2019-03-24T01:48:41.839Z,24.73
2019-03-24T01:51:10.261Z,22.57
2019-03-24T01:53:38.685Z,25.93
2019-03-24T01:56:07.097Z,27.00
2019-03-24T01:58:35.518Z,19.03
2019-03-24T02:01:04.000Z,21.77
2019-03-24T02:03:32.542Z,19.90
2019-03-24T02:06:00.983Z,26.27
2019-03-24T02:08:29.411Z,23.33
2019-03-24T02:10:57.813Z,34.07
2019-03-24T02:13:29.110Z,28.03
2019-03-24T02:15:57.532Z,23.63
2019-03-24T02:18:25.995Z,38.23
2019-03-24T02:20:54.373Z,27.27
2019-03-24T02:23:22.857Z,26.40
2019-03-24T02:25:51.278Z,27.33
2019-03-24T02:28:19.702Z,32.07
2019-03-24T02:30:48.098Z,40.80
2019-03-24T02:33:16.508Z,35.77
2019-03-24T02:35:44.966Z,34.77
2019-03-24T02:38:13.366Z,28.20
2019-03-24T02:40:41.817Z,37.93
2019-03-24T02:43:10.239Z,50.90
2019-03-24T02:45:38.648Z,38.80
2019-03-24T02:48:07.114Z,38.40
2019-03-24T02:50:35.571Z,41.07
2019-03-24T02:53:04.059Z,37.13
2019-03-24T02:55:32.451Z,40.17
2019-03-24T02:58:00.905Z,43.57
2019-03-24T03:00:29.281Z,40.47
2019-03-24T03:02:57.705Z,43.63
2019-03-24T03:05:26.102Z,42.27
2019-03-24T03:07:54.560Z,43.57
2019-03-24T03:10:22.955Z,43.53
2019-03-24T03:12:51.363Z,41.57
2019-03-24T03:15:19.798Z,36.63
2019-03-24T03:17:48.269Z,40.53
2019-03-24T03:20:16.814Z,43.03
2019-03-24T03:22:45.296Z,39.37
2019-03-24T03:25:13.997Z,48.93
2019-03-24T03:27:42.405Z,50.77
2019-03-24T03:30:11.349Z,38.80
2019-03-24T03:32:39.831Z,46.83
2019-03-24T03:35:09.011Z,45.60
2019-03-24T03:37:37.462Z,43.40
2019-03-24T03:40:06.848Z,46.00
2019-03-24T03:42:35.354Z,43.40
2019-03-24T03:45:05.006Z,39.73
2019-03-24T03:47:33.421Z,45.00
2019-03-24T03:50:01.822Z,40.77
2019-03-24T03:52:30.239Z,49.83
2019-03-24T03:54:58.678Z,39.80
2019-03-24T03:57:27.094Z,42.90
2019-03-24T03:59:55.518Z,37.73
2019-03-24T04:02:23.941Z,39.47
2019-03-24T04:04:52.372Z,45.23
2019-03-24T04:07:20.754Z,42.27
2019-03-24T04:09:49.235Z,43.80
2019-03-24T04:12:17.673Z,45.00
2019-03-24T04:14:46.149Z,42.30
2019-03-24T04:17:14.628Z,42.30
2019-03-24T04:19:43.041Z,36.53
2019-03-24T04:22:11.546Z,43.50
2019-03-24T04:24:40.041Z,45.73
2019-03-24T04:27:08.452Z,44.57
2019-03-24T04:29:36.851Z,44.83
2019-03-24T04:32:05.356Z,36.17
2019-03-24T04:34:33.763Z,37.70
2019-03-24T04:37:02.172Z,43.93
2019-03-24T04:39:30.622Z,53.10
2019-03-24T04:41:59.052Z,43.80
2019-03-24T04:44:27.461Z,43.13
2019-03-24T04:46:55.859Z,37.23
2019-03-24T04:49:24.342Z,42.13
2019-03-24T04:51:52.743Z,35.27
2019-03-24T04:54:21.187Z,42.00
2019-03-24T04:56:49.565Z,31.93
2019-03-24T04:59:17.981Z,43.43
2019-03-24T05:01:46.429Z,34.23
2019-03-24T05:04:17.500Z,42.70
2019-03-24T05:06:45.991Z,35.10
2019-03-24T05:09:15.342Z,36.30
2019-03-24T05:11:43.743Z,33.40
2019-03-24T05:14:12.165Z,47.03
2019-03-24T05:16:40.577Z,32.17
2019-03-24T05:19:09.000Z,37.97
2019-03-24T05:21:37.435Z,35.93
2019-03-24T05:24:05.841Z,35.57
2019-03-24T05:26:34.260Z,33.53
2019-03-24T05:29:02.672Z,33.23
2019-03-24T05:31:31.121Z,33.40
2019-03-24T05:33:59.558Z,29.77
2019-03-24T05:36:27.964Z,30.57
2019-03-24T05:38:56.395Z,33.20
2019-03-24T05:41:24.807Z,29.63
2019-03-24T05:43:53.332Z,26.53
2019-03-24T05:46:21.778Z,30.60
2019-03-24T05:48:50.188Z,25.27
2019-03-24T05:51:18.609Z,28.70
2019-03-24T05:53:47.012Z,32.97
2019-03-24T05:56:15.472Z,34.33
2019-03-24T05:58:43.915Z,24.90
2019-03-24T06:01:12.336Z,33.33
2019-03-24T06:03:40.731Z,26.03
2019-03-24T06:06:09.134Z,32.37
2019-03-24T06:08:37.557Z,26.00
2019-03-24T06:11:06.050Z,25.70
2019-03-24T06:13:34.653Z,26.17
2019-03-24T06:16:03.112Z,24.10
2019-03-24T06:18:31.525Z,32.47
2019-03-24T06:20:59.947Z,20.60
2019-03-24T06:23:28.358Z,25.90
2019-03-24T06:25:56.796Z,20.43
2019-03-24T06:28:25.256Z,28.63
2019-03-24T06:30:53.697Z,12.50
2019-03-24T06:33:22.124Z,21.93
2019-03-24T06:35:50.501Z,23.60
2019-03-24T06:38:18.981Z,18.80
2019-03-24T06:40:47.370Z,22.37
2019-03-24T06:43:15.815Z,19.80
2019-03-24T06:45:44.224Z,23.70
2019-03-24T06:48:12.676Z,15.03
2019-03-24T06:50:41.112Z,23.23
2019-03-24T06:53:09.577Z,22.13
2019-03-24T06:55:37.975Z,28.63
2019-03-24T06:58:06.376Z,17.33
2019-03-24T07:00:34.775Z,26.93
2019-03-24T07:03:03.169Z,18.00
2019-03-24T07:05:31.592Z,18.17
2019-03-24T07:07:59.991Z,20.67
2019-03-24T07:10:28.397Z,16.17
2019-03-24T07:12:56.815Z,24.40
2019-03-24T07:15:25.254Z,18.77
2019-03-24T07:17:53.665Z,22.03
2019-03-24T07:20:22.069Z,22.23
2019-03-24T07:22:50.548Z,20.30
2019-03-24T07:25:19.101Z,30.60
2019-03-24T07:27:47.507Z,24.53
2019-03-24T07:30:16.055Z,22.17
2019-03-24T07:32:44.445Z,20.00
2019-03-24T07:35:13.764Z,26.17
2019-03-24T07:37:42.169Z,25.30
2019-03-24T07:40:10.863Z,30.90
2019-03-24T07:42:39.289Z,28.00
2019-03-24T07:45:08.437Z,19.03
2019-03-24T07:47:36.858Z,22.40
2019-03-24T07:50:09.223Z,27.53
2019-03-24T07:52:40.654Z,23.80
2019-03-24T07:55:09.957Z,31.07
2019-03-24T07:57:38.361Z,27.47
2019-03-24T08:00:09.297Z,28.13
2019-03-24T08:02:37.702Z,25.47
2019-03-24T08:05:06.454Z,20.67
2019-03-24T08:07:34.881Z,24.10
2019-03-24T08:10:05.148Z,19.60
2019-03-24T08:12:33.579Z,21.10
2019-03-24T08:15:03.594Z,23.07
2019-03-24T08:17:31.972Z,22.10
2019-03-24T08:20:00.402Z,26.40
2019-03-24T08:22:28.948Z,18.87
2019-03-24T08:24:57.342Z,23.23
2019-03-24T08:27:25.776Z,19.33
2019-03-24T08:29:54.198Z,21.43
2019-03-24T08:32:22.598Z,25.00
2019-03-24T08:34:51.048Z,29.23
2019-03-24T08:37:19.527Z,25.83
2019-03-24T08:39:47.918Z,33.00
2019-03-24T08:42:16.421Z,25.43
2019-03-24T08:44:44.817Z,30.87
2019-03-24T08:47:13.272Z,29.47
2019-03-24T08:49:41.691Z,19.43
2019-03-24T08:52:10.091Z,26.33
2019-03-24T08:54:38.501Z,19.50
2019-03-24T08:57:06.960Z,21.43
2019-03-24T08:59:36.904Z,34.30
2019-03-24T09:02:05.408Z,24.03
2019-03-24T09:04:35.476Z,21.53
2019-03-24T09:07:03.875Z,24.63
2019-03-24T09:09:32.310Z,36.77
2019-03-24T09:12:00.802Z,27.10
2019-03-24T09:14:29.224Z,26.73
2019-03-24T09:16:57.617Z,22.33
2019-03-24T09:19:26.025Z,28.20
2019-03-24T09:21:54.502Z,24.07
2019-03-24T09:24:22.916Z,27.57
2019-03-24T09:26:51.401Z,33.83
2019-03-24T09:29:19.822Z,29.37
2019-03-24T09:31:48.255Z,22.90
2019-03-24T09:34:16.682Z,19.07
2019-03-24T09:36:45.081Z,23.03
2019-03-24T09:39:15.003Z,40.70
2019-03-24T09:41:45.001Z,27.70
2019-03-24T09:44:16.473Z,27.10
2019-03-24T09:46:44.897Z,20.60
2019-03-24T09:49:15.992Z,31.70
2019-03-24T09:51:44.531Z,28.57
2019-03-24T09:54:12.967Z,25.57
2019-03-24T09:56:41.538Z,35.67
2019-03-24T09:59:09.939Z,30.37
2019-03-24T10:01:41.319Z,22.10
2019-03-24T10:04:09.739Z,31.23
2019-03-24T10:06:38.128Z,50.13
2019-03-24T10:09:07.181Z,37.87
2019-03-24T10:11:35.594Z,32.30
2019-03-24T10:14:05.566Z,29.83
2019-03-24T10:16:34.124Z,32.10
2019-03-24T10:19:13.285Z,27.67
2019-03-24T10:21:32.723Z,27.17
2019-03-24T10:24:01.143Z,31.90
2019-03-24T10:26:29.547Z,34.00
2019-03-24T10:28:57.983Z,28.60
2019-03-24T10:31:27.914Z,31.17
2019-03-24T10:33:56.350Z,32.67
2019-03-24T10:36:24.776Z,29.97
2019-03-24T10:38:53.208Z,30.50
2019-03-24T10:41:21.642Z,30.63
2019-03-24T10:43:50.044Z,27.43
2019-03-24T10:46:18.458Z,27.70
2019-03-24T10:48:46.874Z,30.80
2019-03-24T10:51:15.272Z,25.53
2019-03-24T10:53:43.669Z,24.33
2019-03-24T10:56:12.074Z,30.23
2019-03-24T10:58:40.465Z,28.03
2019-03-24T11:01:08.930Z,26.07
2019-03-24T11:03:37.309Z,29.57
2019-03-24T11:06:05.723Z,19.97
2019-03-24T11:08:34.127Z,20.23
2019-03-24T11:11:02.721Z,18.67
2019-03-24T11:13:31.131Z,22.43
2019-03-24T11:15:59.772Z,27.13
2019-03-24T11:18:28.245Z,22.70
2019-03-24T11:20:56.651Z,28.20
2019-03-24T11:23:25.095Z,20.73
2019-03-24T11:25:53.567Z,24.67
2019-03-24T11:28:22.009Z,23.83
2019-03-24T11:30:50.471Z,18.80
2019-03-24T11:33:18.931Z,21.60
2019-03-24T11:35:47.354Z,25.97
2019-03-24T11:38:15.772Z,26.23
2019-03-24T11:40:44.194Z,20.70
2019-03-24T11:43:12.607Z,19.00
2019-03-24T11:45:41.035Z,16.67
2019-03-24T11:48:09.443Z,12.50
2019-03-24T11:50:37.909Z,15.17
2019-03-24T11:53:06.397Z,12.50
2019-03-24T11:55:34.786Z,13.23
2019-03-24T11:58:05.968Z,16.00
2019-03-24T12:00:34.985Z,19.63
2019-03-24T12:03:03.467Z,21.07
2019-03-24T12:05:32.020Z,20.97
2019-03-24T12:08:00.536Z,25.67
2019-03-24T12:10:28.927Z,27.17
2019-03-24T12:12:57.365Z,21.63
2019-03-24T12:15:28.511Z,21.77
2019-03-24T12:17:58.596Z,21.13
2019-03-24T12:20:27.192Z,21.43
2019-03-24T12:22:55.531Z,30.97
2019-03-24T12:25:23.959Z,24.40
2019-03-24T12:27:52.366Z,31.90
2019-03-24T12:30:20.928Z,20.90
2019-03-24T12:32:49.403Z,24.93
2019-03-24T12:35:17.909Z,14.00
2019-03-24T12:37:46.303Z,27.27
2019-03-24T12:40:14.969Z,17.57
2019-03-24T12:42:43.419Z,18.63
2019-03-24T12:45:13.389Z,29.33
2019-03-24T12:47:41.835Z,12.53
2019-03-24T12:50:11.011Z,13.50
2019-03-24T12:52:39.511Z,11.40
2019-03-24T12:55:08.444Z,16.50
2019-03-24T12:57:36.976Z,10.67
2019-03-24T13:00:10.662Z,10.87
2019-03-24T13:02:39.209Z,16.63
2019-03-24T13:05:09.072Z,19.90
2019-03-24T13:07:37.537Z,22.80
2019-03-24T13:10:09.550Z,18.60
2019-03-24T13:12:38.027Z,18.07
2019-03-24T13:15:08.067Z,14.63
2019-03-24T13:17:36.638Z,13.73
2019-03-24T13:20:06.741Z,19.23
2019-03-24T13:22:35.233Z,14.63
2019-03-24T13:25:05.484Z,13.43
2019-03-24T13:27:33.965Z,20.53
2019-03-24T13:30:02.386Z,7.77
2019-03-24T13:32:30.787Z,8.77
2019-03-24T13:34:59.194Z,9.40
2019-03-24T13:37:27.603Z,10.93
2019-03-24T13:39:56.027Z,12.07
2019-03-24T13:42:24.440Z,13.23
2019-03-24T13:44:52.855Z,15.57
2019-03-24T13:47:21.263Z,10.47
2019-03-24T13:49:49.671Z,25.40
2019-03-24T13:52:18.227Z,9.97
2019-03-24T13:54:46.695Z,9.73
2019-03-24T13:57:15.238Z,11.70
2019-03-24T13:59:43.644Z,8.90
2019-03-24T14:02:12.104Z,8.47
2019-03-24T14:04:40.533Z,13.90
2019-03-24T14:07:08.934Z,6.40
2019-03-24T14:09:37.427Z,7.17
2019-03-24T14:12:05.973Z,6.80
2019-03-24T14:14:34.378Z,11.80
2019-03-24T14:17:02.889Z,8.43
2019-03-24T14:19:31.293Z,7.20
2019-03-24T14:21:59.714Z,7.17
2019-03-24T14:24:28.144Z,6.43
2019-03-24T14:26:56.554Z,15.23
2019-03-24T14:29:27.074Z,6.70
2019-03-24T14:31:55.100Z,12.67
2019-03-24T14:34:23.587Z,11.33
2019-03-24T14:36:51.990Z,11.83
2019-03-24T14:39:20.469Z,6.77
2019-03-24T14:41:48.895Z,10.03
2019-03-24T14:44:17.335Z,9.23
2019-03-24T14:46:45.718Z,9.53
2019-03-24T14:49:14.188Z,5.23
2019-03-24T14:51:42.678Z,11.07
2019-03-24T14:54:11.149Z,10.83
2019-03-24T14:56:39.528Z,8.03
2019-03-24T14:59:07.961Z,8.10
2019-03-24T15:01:36.420Z,6.07
2019-03-24T15:04:04.846Z,6.63
2019-03-24T15:06:33.253Z,10.57
2019-03-24T15:09:01.664Z,7.10
2019-03-24T15:11:30.077Z,4.47
2019-03-24T15:13:58.488Z,4.93
2019-03-24T15:16:26.906Z,8.10
2019-03-24T15:18:55.323Z,9.13
2019-03-24T15:21:23.732Z,11.20
2019-03-24T15:23:52.145Z,8.50
2019-03-24T15:26:20.565Z,7.57
2019-03-24T15:28:48.977Z,9.00
2019-03-24T15:31:19.119Z,11.00
2019-03-24T15:33:47.546Z,7.23
2019-03-24T15:36:15.958Z,9.17
2019-03-24T15:38:44.373Z,7.00
2019-03-24T15:41:12.808Z,7.67
2019-03-24T15:43:41.286Z,11.37
2019-03-24T15:46:09.753Z,10.50
2019-03-24T15:48:38.115Z,9.47
2019-03-24T15:51:16.351Z,7.13
2019-03-24T15:53:36.667Z,9.53
2019-03-24T15:56:05.819Z,7.57
2019-03-24T15:58:36.976Z,13.57
2019-03-24T16:01:05.464Z,5.40
2019-03-24T16:03:33.880Z,16.60
2019-03-24T16:06:02.280Z,7.60
2019-03-24T16:08:30.701Z,7.40
2019-03-24T16:11:00.832Z,8.97
2019-03-24T16:13:29.275Z,10.60
2019-03-24T16:15:57.727Z,11.50
2019-03-24T16:18:31.376Z,8.00
2019-03-24T16:20:59.886Z,9.90
2019-03-24T16:23:32.721Z,7.60
2019-03-24T16:26:01.227Z,15.47
2019-03-24T16:28:35.282Z,11.00
2019-03-24T16:31:06.530Z,7.23
2019-03-24T16:33:36.245Z,12.07
2019-03-24T16:36:06.166Z,5.83
2019-03-24T16:38:48.828Z,15.93
2019-03-24T16:41:11.937Z,9.40
2019-03-24T16:43:46.313Z,7.90
2019-03-24T16:46:16.433Z,9.07
2019-03-24T16:48:44.858Z,14.43
2019-03-24T16:51:16.305Z,9.37
2019-03-24T16:53:47.932Z,7.67
2019-03-24T16:56:32.557Z,10.83
2019-03-24T16:59:04.000Z,27.70
2019-03-24T17:01:35.167Z,14.87
2019-03-24T17:04:05.297Z,10.37
2019-03-24T17:06:42.295Z,12.67
2019-03-24T17:09:18.245Z,17.50
2019-03-24T17:11:51.572Z,10.93
2019-03-24T17:14:20.904Z,11.17
2019-03-24T17:16:52.366Z,21.67
2019-03-24T17:19:20.785Z,10.40
2019-03-24T17:21:52.160Z,12.87
2019-03-24T17:24:20.606Z,14.73
2019-03-24T17:26:49.040Z,15.67
2019-03-24T17:29:17.524Z,18.63
2019-03-24T17:31:46.003Z,15.97
2019-03-24T17:34:17.701Z,14.47
2019-03-24T17:36:52.015Z,12.90
2019-03-24T17:39:20.443Z,14.50
2019-03-24T17:41:54.836Z,12.17
2019-03-24T17:44:26.302Z,11.60
2019-03-24T17:46:54.852Z,11.50
2019-03-24T17:49:24.149Z,15.23
2019-03-24T17:52:00.964Z,9.80
2019-03-24T17:54:28.623Z,18.23
2019-03-24T17:57:03.556Z,15.00
2019-03-24T17:59:41.059Z,11.57
2019-03-24T18:02:14.641Z,8.63
2019-03-24T18:04:50.545Z,11.90
2019-03-24T18:07:20.515Z,12.43
2019-03-24T18:09:48.909Z,9.80
2019-03-24T18:12:21.009Z,11.67
2019-03-24T18:14:49.091Z,16.60
2019-03-24T18:17:18.504Z,16.20
2019-03-24T18:19:50.916Z,12.87
2019-03-24T18:22:19.302Z,11.23
2019-03-24T18:24:53.620Z,12.70
2019-03-24T18:27:31.043Z,14.27
2019-03-24T18:29:59.892Z,10.43
2019-03-24T18:32:28.400Z,11.23
2019-03-24T18:34:56.830Z,10.60
2019-03-24T18:37:26.869Z,11.10
2019-03-24T18:39:55.262Z,7.47
2019-03-24T18:42:23.751Z,12.50
2019-03-24T18:44:53.690Z,9.03
2019-03-24T18:47:22.140Z,7.93
2019-03-24T18:49:50.560Z,10.00
2019-03-24T18:52:22.831Z,11.73
2019-03-24T18:54:52.178Z,12.30
2019-03-24T18:57:23.577Z,10.67
2019-03-24T18:59:52.022Z,10.80
2019-03-24T19:02:20.448Z,13.57
2019-03-24T19:04:48.839Z,8.50
2019-03-24T19:07:17.256Z,14.33
2019-03-24T19:09:45.650Z,9.80
2019-03-24T19:12:14.127Z,10.23
2019-03-24T19:14:43.016Z,10.43
2019-03-24T19:17:11.426Z,12.10
2019-03-24T19:19:39.852Z,13.30
2019-03-24T19:22:08.425Z,9.70
2019-03-24T19:24:36.825Z,9.90
2019-03-24T19:27:05.435Z,11.07
2019-03-24T19:29:33.865Z,11.03
2019-03-24T19:32:02.342Z,15.03
2019-03-24T19:34:31.119Z,12.87
2019-03-24T19:36:59.670Z,12.80
2019-03-24T19:39:28.145Z,10.40
2019-03-24T19:41:56.572Z,8.97
2019-03-24T19:44:24.975Z,14.07
2019-03-24T19:46:53.429Z,15.90
2019-03-24T19:49:21.832Z,20.90
2019-03-24T19:51:50.352Z,11.17
2019-03-24T19:54:18.749Z,16.37
2019-03-24T19:56:47.239Z,19.77
2019-03-24T19:59:15.679Z,11.73
2019-03-24T20:01:44.083Z,13.37
2019-03-24T20:04:12.517Z,15.67
2019-03-24T20:06:40.899Z,12.63
2019-03-24T20:09:11.308Z,16.87
2019-03-24T20:11:41.203Z,15.00
2019-03-24T20:14:09.591Z,12.20
2019-03-24T20:16:38.039Z,18.57
2019-03-24T20:19:06.476Z,15.20
2019-03-24T20:21:34.902Z,12.87
2019-03-24T20:24:03.376Z,9.70
2019-03-24T20:26:31.792Z,10.50
2019-03-24T20:29:00.200Z,15.77
2019-03-24T20:31:28.650Z,13.60
2019-03-24T20:33:57.050Z,12.37
2019-03-24T20:36:25.494Z,15.33
2019-03-24T20:38:53.893Z,15.43
2019-03-24T20:41:22.326Z,16.93
2019-03-24T20:43:50.757Z,12.87
2019-03-24T20:46:19.145Z,17.43
2019-03-24T20:48:47.612Z,12.93
2019-03-24T20:51:16.037Z,13.40
2019-03-24T20:53:44.456Z,16.10
2019-03-24T20:56:12.889Z,20.10
2019-03-24T20:58:41.326Z,16.73
2019-03-24T21:01:09.759Z,13.77
2019-03-24T21:03:38.157Z,13.30
2019-03-24T21:06:06.654Z,14.20
2019-03-24T21:08:35.070Z,11.00
2019-03-24T21:11:03.482Z,14.73
2019-03-24T21:13:31.894Z,18.63
2019-03-24T21:16:00.313Z,16.83
2019-03-24T21:18:28.730Z,16.97
2019-03-24T21:20:57.147Z,10.40
2019-03-24T21:23:29.795Z,14.70
2019-03-24T21:25:55.762Z,11.00
2019-03-24T21:28:24.203Z,20.70
2019-03-24T21:30:52.615Z,17.90
2019-03-24T21:33:21.026Z,16.47
2019-03-24T21:35:49.528Z,13.57
2019-03-24T21:38:17.949Z,13.30
2019-03-24T21:40:46.363Z,9.80
2019-03-24T21:43:14.884Z,13.70
2019-03-24T21:45:43.731Z,16.10
2019-03-24T21:48:12.162Z,18.37
2019-03-24T21:50:40.606Z,15.60
2019-03-24T21:53:09.089Z,15.03
2019-03-24T21:55:37.502Z,17.83
2019-03-24T21:58:05.980Z,17.50
2019-03-24T22:00:35.921Z,12.07
2019-03-24T22:03:04.687Z,17.10
2019-03-24T22:05:33.158Z,12.60
2019-03-24T22:08:01.653Z,32.10
2019-03-24T22:10:30.064Z,17.20
2019-03-24T22:12:58.539Z,24.23
2019-03-24T22:15:27.038Z,16.50
2019-03-24T22:17:55.595Z,20.20
2019-03-24T22:20:24.019Z,21.83
2019-03-24T22:22:52.412Z,14.00
2019-03-24T22:25:20.843Z,21.00
2019-03-24T22:27:49.262Z,12.07
2019-03-24T22:30:18.022Z,61.10
2019-03-24T22:32:46.489Z,20.97
2019-03-24T22:35:14.910Z,14.53
2019-03-24T22:37:43.333Z,13.90
2019-03-24T22:40:12.064Z,16.03
2019-03-24T22:42:40.464Z,17.97
2019-03-24T22:45:09.123Z,10.53
2019-03-24T22:47:37.523Z,15.73
2019-03-24T22:50:08.133Z,11.60
2019-03-24T22:52:37.117Z,14.80
2019-03-24T22:55:08.961Z,10.90
2019-03-24T22:57:37.417Z,12.23
2019-03-24T23:00:15.492Z,12.63
2019-03-24T23:02:43.908Z,29.20
2019-03-24T23:05:12.496Z,16.57
2019-03-24T23:07:40.920Z,14.33
2019-03-24T23:10:09.454Z,13.00
2019-03-24T23:12:37.885Z,11.53
2019-03-24T23:15:07.409Z,15.27
2019-03-24T23:17:36.091Z,16.10
2019-03-24T23:20:06.137Z,14.83
2019-03-24T23:22:34.641Z,14.37
2019-03-24T23:25:03.239Z,16.33
2019-03-24T23:27:31.667Z,12.27
2019-03-24T23:30:00.072Z,12.33
2019-03-24T23:32:28.546Z,14.10
2019-03-24T23:34:56.966Z,14.33
2019-03-24T23:37:25.375Z,9.30
2019-03-24T23:39:53.804Z,18.53
2019-03-24T23:42:22.268Z,14.70
2019-03-24T23:44:50.699Z,19.40
2019-03-24T23:47:19.088Z,25.50
2019-03-24T23:49:47.479Z,11.00
2019-03-24T23:52:15.892Z,13.40
2019-03-24T23:54:44.293Z,14.20
2019-03-24T23:57:12.688Z,15.60
2019-03-24T23:59:41.092Z,14.10
